LGKF/EFL METAR and TAF weather

Enter ICAO airport designator
Station Type Date Time Source
LGKF METAR 2018/12/10 09:50 UTC NOAA

LGKF 100950Z 31015KT 9999 FEW014 FEW018TCU SCT020 BKN070 15/10 Q1007


Station Type Date Time Source
LGKF Decoded METAR 2018/12/10 09:50 UTC NOAA

Kefalhnia Airport , Greece (LGKF) 38-07N 020-30E 22M
Dec 10, 2018 - 04:50 AM EST / 2018.12.10 0950 UTC
Wind: from the NW (310 degrees) at 17 MPH (15 KT):0
Visibility: greater than 7 mile(s):0
Sky conditions: mostly cloudy
Weather: Towering cumulus clouds observed
Temperature: 59 F (15 C)
Dew Point: 50 F (10 C)
Relative Humidity: 72%
Pressure (altimeter): 29.74 in. Hg (1007 hPa)
ob: LGKF 100950Z 31015KT 9999 FEW014 FEW018TCU SCT020 BKN070 15/10 Q1007
cycle: 10

Station Type Date Time Source
LGKF TAF 2011/03/20 15:06 UTC NOAA

TAF LGKF 201400Z 2015/2103 05012KT 9999 FEW020 SCT080 PROB30
TEMPO 2015/2003 6000 RA SCT020 BKN060 PROB30
TEMPO 2015/2021 4000 TSRA SCT015 FEW018CB BKN025


Example: see airport list